createdAt,value
2022-09-28T00:00:58.288Z,10.40
2022-09-28T00:03:28.092Z,10.40
2022-09-28T00:06:02.420Z,10.40
2022-09-28T00:08:30.319Z,10.40
2022-09-28T00:10:58.811Z,10.40
2022-09-28T00:13:26.723Z,10.40
2022-09-28T00:16:02.286Z,10.50
2022-09-28T00:18:32.189Z,10.50
2022-09-28T00:21:05.491Z,10.40
2022-09-28T00:23:33.885Z,10.40
2022-09-28T00:26:05.543Z,10.40
2022-09-28T00:28:33.449Z,10.40
2022-09-28T00:31:01.281Z,10.40
2022-09-28T00:33:29.033Z,10.30
2022-09-28T00:35:58.995Z,10.40
2022-09-28T00:38:30.488Z,10.40
2022-09-28T00:40:59.550Z,10.40
2022-09-28T00:43:28.037Z,10.40
2022-09-28T00:46:00.346Z,10.40
2022-09-28T00:48:32.433Z,10.30
2022-09-28T00:51:06.020Z,10.30
2022-09-28T00:53:36.804Z,10.30
2022-09-28T00:56:07.454Z,10.20
2022-09-28T00:58:39.158Z,10.20
2022-09-28T01:01:07.069Z,10.20
2022-09-28T01:03:35.637Z,10.20
2022-09-28T01:06:08.651Z,10.20
2022-09-28T01:08:38.092Z,10.20
2022-09-28T01:11:06.150Z,10.10
2022-09-28T01:13:34.436Z,10.10
2022-09-28T01:16:10.121Z,10.10
2022-09-28T01:18:44.526Z,10.10
2022-09-28T01:21:19.669Z,10.10
2022-09-28T01:24:11.667Z,10.10
2022-09-28T01:26:53.492Z,10.10
2022-09-28T01:29:32.220Z,10.10
2022-09-28T01:32:08.267Z,10.10
2022-09-28T01:34:42.184Z,10.10
2022-09-28T01:37:14.247Z,10.10
2022-09-28T01:39:46.095Z,10.10
2022-09-28T01:42:19.933Z,10.00
2022-09-28T01:44:51.914Z,10.00
2022-09-28T01:47:23.205Z,9.90
2022-09-28T01:49:56.126Z,9.80
2022-09-28T01:52:30.284Z,9.70
2022-09-28T01:55:01.124Z,9.70
2022-09-28T01:57:35.076Z,9.60
2022-09-28T02:00:07.874Z,9.50
2022-09-28T02:02:40.662Z,9.50
2022-09-28T02:05:12.868Z,9.40
2022-09-28T02:07:45.141Z,9.30
2022-09-28T02:10:18.455Z,9.30
2022-09-28T02:12:49.897Z,9.20
2022-09-28T02:21:45.167Z,9.00
2022-09-28T02:24:21.427Z,8.90
2022-09-28T02:26:52.167Z,8.90
2022-09-28T02:29:21.243Z,8.80
2022-09-28T02:31:49.084Z,8.80
2022-09-28T02:34:17.116Z,8.80
2022-09-28T02:36:46.291Z,8.80
2022-09-28T02:39:16.715Z,8.80
2022-09-28T02:41:56.528Z,8.80
2022-09-28T02:44:57.647Z,8.90
2022-09-28T02:47:39.013Z,8.90
2022-09-28T02:50:16.755Z,8.90
2022-09-28T02:53:06.899Z,8.90
2022-09-28T02:55:51.226Z,8.90
2022-09-28T02:58:30.165Z,9.00
2022-09-28T03:01:11.213Z,9.00
2022-09-28T03:03:46.289Z,9.00
2022-09-28T03:06:22.988Z,8.90
2022-09-28T03:08:55.713Z,8.90
2022-09-28T03:11:27.827Z,8.90
2022-09-28T03:13:56.665Z,8.90
2022-09-28T03:16:27.508Z,8.80
2022-09-28T03:18:55.371Z,8.80
2022-09-28T03:21:23.064Z,8.80
2022-09-28T03:23:50.894Z,8.80
2022-09-28T03:26:19.802Z,8.80
2022-09-28T03:28:47.552Z,8.70
2022-09-28T03:31:15.373Z,8.70
2022-09-28T03:33:44.482Z,8.70
2022-09-28T03:36:14.562Z,8.60
2022-09-28T03:38:42.337Z,8.60
2022-09-28T03:41:10.400Z,8.60
2022-09-28T03:43:38.205Z,8.60
2022-09-28T03:46:06.174Z,8.60
2022-09-28T03:48:35.889Z,8.60
2022-09-28T03:51:09.199Z,8.60
2022-09-28T03:53:37.529Z,8.50
2022-09-28T03:56:07.853Z,8.50
2022-09-28T03:58:35.882Z,8.50
2022-09-28T04:01:07.593Z,8.50
2022-09-28T04:03:35.793Z,8.60
2022-09-28T04:06:05.333Z,8.60
2022-09-28T04:08:33.134Z,8.60
2022-09-28T04:11:02.017Z,8.70
2022-09-28T04:13:30.819Z,8.80
2022-09-28T04:16:01.646Z,8.80
2022-09-28T04:18:31.810Z,8.90
2022-09-28T04:21:03.430Z,9.00
2022-09-28T04:23:32.632Z,9.00
2022-09-28T04:26:00.651Z,9.00
2022-09-28T04:28:45.959Z,9.00
2022-09-28T04:31:17.248Z,9.10
2022-09-28T04:33:45.104Z,9.10
2022-09-28T04:36:12.846Z,9.10
2022-09-28T04:38:52.958Z,9.20
2022-09-28T04:41:22.300Z,9.10
2022-09-28T04:43:51.135Z,9.10
2022-09-28T04:46:21.783Z,9.10
2022-09-28T04:48:49.890Z,9.00
2022-09-28T04:51:17.865Z,9.00
2022-09-28T04:53:47.037Z,9.00
2022-09-28T04:56:16.691Z,9.00
2022-09-28T04:58:47.933Z,9.00
2022-09-28T05:01:23.419Z,9.00
2022-09-28T05:03:54.190Z,9.10
2022-09-28T05:06:22.990Z,9.10
2022-09-28T05:08:53.996Z,9.00
2022-09-28T05:11:22.038Z,9.10
2022-09-28T05:13:52.415Z,9.10
2022-09-28T05:16:20.580Z,9.10
2022-09-28T05:18:48.775Z,9.10
2022-09-28T05:21:20.312Z,9.00
2022-09-28T05:23:48.640Z,9.00
2022-09-28T05:26:17.994Z,9.10
2022-09-28T05:28:45.859Z,9.20
2022-09-28T05:31:13.642Z,9.20
2022-09-28T05:33:44.113Z,9.20
2022-09-28T05:36:12.226Z,9.30
2022-09-28T05:38:40.013Z,9.40
2022-09-28T05:41:07.825Z,9.40
2022-09-28T05:43:38.453Z,9.50
2022-09-28T05:46:06.972Z,9.40
2022-09-28T05:48:34.900Z,9.40
2022-09-28T05:51:02.693Z,9.40
2022-09-28T05:53:30.610Z,9.40
2022-09-28T05:55:59.394Z,9.40
2022-09-28T05:58:27.185Z,9.40
2022-09-28T06:00:57.623Z,9.40
2022-09-28T06:03:26.107Z,9.30
2022-09-28T06:05:54.147Z,9.30
2022-09-28T06:08:22.733Z,9.40
2022-09-28T06:10:50.521Z,9.40
2022-09-28T06:13:18.304Z,9.50
2022-09-28T06:15:46.282Z,9.60
2022-09-28T06:18:16.037Z,9.60
2022-09-28T06:20:44.302Z,9.70
2022-09-28T06:23:13.459Z,9.70
2022-09-28T06:25:41.496Z,9.70
2022-09-28T06:28:12.849Z,9.80
2022-09-28T06:30:41.736Z,9.80
2022-09-28T06:33:12.481Z,9.90
2022-09-28T06:35:42.413Z,10.00
2022-09-28T06:38:10.639Z,10.10
2022-09-28T06:40:38.809Z,10.20
2022-09-28T06:43:10.365Z,10.20
2022-09-28T06:45:40.142Z,10.20
2022-09-28T06:48:09.028Z,10.20
2022-09-28T06:50:39.037Z,10.30
2022-09-28T06:53:11.436Z,10.30
2022-09-28T06:55:41.038Z,10.30
2022-09-28T06:58:11.770Z,10.40
2022-09-28T07:00:42.181Z,10.40
2022-09-28T07:03:13.229Z,10.40
2022-09-28T07:05:46.344Z,10.40
2022-09-28T07:08:16.048Z,10.50
2022-09-28T07:10:45.185Z,10.50
2022-09-28T07:13:41.529Z,10.60
2022-09-28T07:16:02.783Z,10.50
2022-09-28T07:18:30.686Z,10.50
2022-09-28T07:21:02.746Z,10.60
2022-09-28T07:23:32.814Z,10.60
2022-09-28T07:26:07.923Z,10.60
2022-09-28T07:28:36.258Z,10.60
2022-09-28T07:31:04.271Z,10.60
2022-09-28T07:33:32.796Z,10.60
2022-09-28T07:36:06.429Z,10.50
2022-09-28T07:38:35.883Z,10.60
2022-09-28T07:41:11.803Z,10.60
2022-09-28T07:43:40.155Z,10.60
2022-09-28T07:46:14.806Z,10.70
2022-09-28T07:48:45.995Z,10.70
2022-09-28T07:51:13.868Z,10.70
2022-09-28T07:53:43.094Z,10.70
2022-09-28T07:56:14.443Z,10.70
2022-09-28T07:58:43.094Z,10.80
2022-09-28T08:01:14.903Z,10.80
2022-09-28T08:03:48.105Z,10.80
2022-09-28T08:06:18.878Z,10.70
2022-09-28T08:08:48.077Z,10.80
2022-09-28T08:11:18.812Z,10.80
2022-09-28T08:13:47.617Z,10.90
2022-09-28T08:16:15.523Z,11.00
2022-09-28T08:18:45.702Z,11.10
2022-09-28T08:21:30.869Z,11.20
2022-09-28T08:24:00.102Z,11.20
2022-09-28T08:26:28.963Z,11.20
2022-09-28T08:29:17.220Z,11.30
2022-09-28T08:31:44.948Z,11.40
2022-09-28T08:34:12.612Z,11.50
2022-09-28T08:36:40.250Z,11.60
2022-09-28T08:39:09.339Z,11.70
2022-09-28T08:41:46.357Z,11.70
2022-09-28T08:44:23.821Z,11.70
2022-09-28T08:46:57.346Z,11.80
2022-09-28T08:49:31.039Z,11.90
2022-09-28T08:52:02.018Z,12.00
2022-09-28T08:54:40.073Z,12.00
2022-09-28T08:57:13.216Z,12.00
2022-09-28T08:59:49.329Z,12.00
2022-09-28T09:02:21.790Z,12.10
2022-09-28T09:04:51.549Z,12.20
2022-09-28T09:07:49.741Z,12.30
2022-09-28T09:10:36.428Z,12.30
2022-09-28T09:13:14.374Z,12.40
2022-09-28T09:15:49.823Z,12.50
2022-09-28T09:18:27.995Z,12.50
2022-09-28T09:20:58.316Z,12.60
2022-09-28T09:23:36.312Z,12.60
2022-09-28T09:26:16.672Z,12.70
2022-09-28T09:29:01.486Z,12.70
2022-09-28T09:31:40.748Z,12.70
2022-09-28T09:34:30.489Z,12.70
2022-09-28T09:37:07.891Z,12.60
2022-09-28T09:39:44.940Z,12.40
2022-09-28T09:42:31.822Z,12.30
2022-09-28T09:45:17.434Z,12.20
2022-09-28T09:47:50.218Z,12.30
2022-09-28T09:50:29.809Z,12.40
2022-09-28T09:53:01.630Z,12.30
2022-09-28T09:55:32.959Z,12.30
2022-09-28T09:58:09.919Z,12.30
2022-09-28T10:00:40.862Z,12.30
2022-09-28T10:03:18.141Z,12.30
2022-09-28T10:05:51.003Z,12.20
2022-09-28T10:08:23.684Z,12.10
2022-09-28T10:10:54.961Z,12.10
2022-09-28T10:13:23.972Z,12.10
2022-09-28T10:15:51.798Z,12.20
2022-09-28T10:18:21.946Z,12.30
2022-09-28T10:20:49.960Z,12.60
2022-09-28T10:23:23.267Z,12.80
2022-09-28T10:25:53.433Z,13.10
2022-09-28T10:28:31.101Z,13.30
2022-09-28T10:30:58.967Z,13.50
2022-09-28T10:33:30.468Z,13.70
2022-09-28T10:36:00.127Z,13.80
2022-09-28T10:38:30.003Z,13.90
2022-09-28T10:41:00.737Z,13.80
2022-09-28T10:43:33.466Z,13.80
2022-09-28T10:46:04.182Z,13.90
2022-09-28T10:48:48.003Z,13.90
2022-09-28T10:51:16.125Z,13.90
2022-09-28T10:53:58.055Z,13.80
2022-09-28T10:56:29.592Z,13.80
2022-09-28T10:58:59.878Z,13.90
2022-09-28T11:01:32.959Z,13.70
2022-09-28T11:04:03.517Z,13.70
2022-09-28T11:06:33.590Z,13.80
2022-09-28T11:09:04.449Z,13.90
2022-09-28T11:11:40.519Z,14.00
2022-09-28T11:14:28.538Z,14.20
2022-09-28T11:17:19.353Z,14.40
2022-09-28T11:19:47.154Z,14.50
2022-09-28T11:22:23.301Z,14.60
2022-09-28T11:24:51.472Z,14.60
2022-09-28T11:27:24.987Z,14.60
2022-09-28T11:29:58.380Z,14.60
2022-09-28T11:32:29.597Z,14.70
2022-09-28T11:35:00.594Z,14.80
2022-09-28T11:37:55.126Z,14.90
2022-09-28T11:40:36.172Z,15.00
2022-09-28T11:43:15.954Z,15.10
2022-09-28T11:46:00.369Z,15.20
2022-09-28T11:48:42.138Z,15.30
2022-09-28T11:51:18.624Z,15.40
2022-09-28T11:53:50.762Z,15.50
2022-09-28T11:56:28.589Z,15.50
2022-09-28T11:58:59.476Z,15.70
2022-09-28T12:01:35.572Z,15.70
2022-09-28T12:04:08.394Z,15.80
2022-09-28T12:06:41.960Z,15.80
2022-09-28T12:09:18.044Z,15.70
2022-09-28T12:11:51.019Z,15.80
2022-09-28T12:14:23.452Z,15.80
2022-09-28T12:17:07.107Z,15.80
2022-09-28T12:19:40.837Z,15.80
2022-09-28T12:22:18.056Z,15.90
2022-09-28T12:24:49.966Z,15.90
2022-09-28T12:27:24.521Z,15.90
2022-09-28T12:29:56.672Z,15.80
2022-09-28T12:32:39.047Z,15.60
2022-09-28T12:35:14.368Z,15.60
2022-09-28T12:37:57.822Z,15.60
2022-09-28T12:40:36.538Z,15.60
2022-09-28T12:43:26.266Z,15.60
2022-09-28T12:46:22.869Z,15.50
2022-09-28T12:52:29.040Z,15.30
2022-09-28T12:55:20.485Z,15.10
2022-09-28T12:57:58.627Z,14.90
2022-09-28T13:00:32.155Z,14.70
2022-09-28T13:03:42.477Z,14.50
2022-09-28T13:06:32.839Z,14.40
2022-09-28T13:09:19.890Z,14.20
2022-09-28T13:12:02.697Z,14.10
2022-09-28T13:14:59.802Z,14.00
2022-09-28T13:17:41.370Z,14.00
2022-09-28T13:20:20.790Z,14.00
2022-09-28T13:22:56.965Z,13.90
2022-09-28T13:25:28.187Z,13.90
2022-09-28T13:28:00.623Z,13.90
2022-09-28T13:30:28.849Z,13.80
2022-09-28T13:32:58.067Z,13.90
2022-09-28T13:35:26.190Z,13.90
2022-09-28T13:38:32.439Z,13.90
2022-09-28T13:41:17.664Z,14.00
2022-09-28T13:44:16.624Z,14.00
2022-09-28T13:46:52.405Z,14.10
2022-09-28T13:49:25.622Z,14.30
2022-09-28T13:52:05.083Z,14.40
2022-09-28T13:54:53.444Z,14.50
2022-09-28T13:57:29.980Z,14.50
2022-09-28T14:00:16.899Z,14.60
2022-09-28T14:02:48.676Z,14.70
2022-09-28T14:05:56.422Z,14.70
2022-09-28T14:08:45.164Z,14.80
2022-09-28T14:11:41.934Z,14.80
2022-09-28T14:14:32.291Z,14.70
2022-09-28T14:17:50.340Z,14.70
2022-09-28T14:20:23.589Z,14.60
2022-09-28T14:23:18.047Z,14.60
2022-09-28T14:25:47.357Z,14.60
2022-09-28T14:28:41.461Z,14.60
2022-09-28T14:31:18.148Z,14.50
2022-09-28T14:33:57.744Z,14.50
2022-09-28T14:36:42.346Z,14.30
2022-09-28T14:39:40.587Z,14.30
2022-09-28T14:42:15.632Z,14.30
2022-09-28T14:45:21.740Z,14.20
2022-09-28T14:48:44.015Z,14.10
2022-09-28T14:51:58.147Z,14.20
2022-09-28T14:54:31.768Z,14.40
2022-09-28T14:57:09.253Z,14.50
2022-09-28T14:59:43.439Z,14.60
2022-09-28T15:02:19.682Z,14.70
2022-09-28T15:04:53.283Z,14.70
2022-09-28T15:07:23.585Z,14.80
2022-09-28T15:09:52.848Z,14.80
2022-09-28T15:12:24.469Z,14.80
2022-09-28T15:14:55.584Z,14.70
2022-09-28T15:17:26.851Z,14.70
2022-09-28T15:20:20.963Z,14.60
2022-09-28T15:22:50.211Z,14.50
2022-09-28T15:25:20.779Z,14.40
2022-09-28T15:27:54.022Z,14.40
2022-09-28T15:30:25.764Z,14.30
2022-09-28T15:32:56.639Z,14.20
2022-09-28T15:35:27.002Z,14.10
2022-09-28T15:37:56.300Z,14.10
2022-09-28T15:40:33.465Z,14.00
2022-09-28T15:43:02.395Z,14.00
2022-09-28T15:45:35.700Z,13.90
2022-09-28T15:48:20.737Z,13.90
2022-09-28T15:51:02.201Z,13.90
2022-09-28T15:53:31.271Z,13.90
2022-09-28T15:56:09.731Z,13.90
2022-09-28T15:58:40.003Z,13.90
2022-09-28T16:01:29.546Z,13.80
2022-09-28T16:03:57.283Z,13.80
2022-09-28T16:06:26.404Z,13.70
2022-09-28T16:08:54.114Z,13.60
2022-09-28T16:11:26.143Z,13.50
2022-09-28T16:14:01.440Z,13.30
2022-09-28T16:16:31.302Z,13.20
2022-09-28T16:19:01.281Z,13.00
2022-09-28T16:21:47.785Z,12.90
2022-09-28T16:24:24.707Z,12.70
2022-09-28T16:27:01.157Z,12.60
2022-09-28T16:29:39.657Z,12.50
2022-09-28T16:32:41.513Z,12.40
2022-09-28T16:35:25.445Z,12.20
2022-09-28T16:38:02.270Z,12.20
2022-09-28T16:40:31.278Z,12.00
2022-09-28T16:43:03.074Z,11.90
2022-09-28T16:45:30.920Z,11.80
2022-09-28T16:47:58.929Z,11.80
2022-09-28T16:50:27.051Z,11.70
2022-09-28T16:53:19.785Z,11.70
2022-09-28T16:55:50.211Z,11.60
2022-09-28T16:58:18.532Z,11.50
2022-09-28T17:00:46.226Z,11.50
2022-09-28T17:03:15.628Z,11.40
2022-09-28T17:05:44.016Z,11.30
2022-09-28T17:08:17.028Z,11.30
2022-09-28T17:11:13.136Z,11.30
2022-09-28T17:13:38.655Z,11.20
2022-09-28T17:16:09.946Z,11.20
2022-09-28T17:18:38.974Z,11.10
2022-09-28T17:21:10.728Z,11.10
2022-09-28T17:23:39.932Z,11.00
2022-09-28T17:26:08.303Z,11.00
2022-09-28T17:28:37.128Z,11.00
2022-09-28T17:31:07.407Z,11.00
2022-09-28T17:33:35.292Z,11.00
2022-09-28T17:36:05.300Z,11.00
2022-09-28T17:38:34.535Z,10.90
2022-09-28T17:41:03.785Z,10.90
2022-09-28T17:43:31.579Z,10.80
2022-09-28T17:45:59.539Z,10.80
2022-09-28T17:48:27.925Z,10.70
2022-09-28T17:50:55.839Z,10.70
2022-09-28T17:53:23.585Z,10.70
2022-09-28T17:55:51.352Z,10.60
2022-09-28T17:58:22.214Z,10.50
2022-09-28T18:00:51.592Z,10.40
2022-09-28T18:03:21.416Z,10.40
2022-09-28T18:05:52.622Z,10.30
2022-09-28T18:08:22.460Z,10.30
2022-09-28T18:10:51.590Z,10.20
2022-09-28T18:13:21.218Z,10.20
2022-09-28T18:15:52.006Z,10.20
2022-09-28T18:18:20.177Z,10.20
2022-09-28T18:20:48.094Z,10.20
2022-09-28T18:23:16.239Z,10.30
2022-09-28T18:25:45.415Z,10.30
2022-09-28T18:28:14.101Z,10.30
2022-09-28T18:30:45.665Z,10.20
2022-09-28T18:33:15.510Z,10.20
2022-09-28T18:35:51.903Z,10.10
2022-09-28T18:38:20.181Z,10.10
2022-09-28T18:40:48.491Z,10.00
2022-09-28T18:43:16.954Z,10.00
2022-09-28T18:45:47.063Z,10.00
2022-09-28T18:48:14.968Z,10.00
2022-09-28T18:50:43.614Z,9.90
2022-09-28T18:53:14.534Z,9.80
2022-09-28T18:55:44.353Z,9.70
2022-09-28T18:58:13.294Z,9.70
2022-09-28T19:00:43.109Z,9.60
2022-09-28T19:03:14.374Z,9.50
2022-09-28T19:05:43.287Z,9.50
2022-09-28T19:08:11.658Z,9.50
2022-09-28T19:10:39.379Z,9.40
2022-09-28T19:13:07.204Z,9.40
2022-09-28T19:15:34.970Z,9.40
2022-09-28T19:18:03.937Z,9.40
2022-09-28T19:20:33.724Z,9.30
2022-09-28T19:23:02.177Z,9.30
2022-09-28T19:25:30.022Z,9.30
2022-09-28T19:27:58.020Z,9.30
2022-09-28T19:30:25.712Z,9.30
2022-09-28T19:32:53.615Z,9.30
2022-09-28T19:35:21.414Z,9.30
2022-09-28T19:37:51.371Z,9.30
2022-09-28T19:40:19.104Z,9.30
2022-09-28T19:42:47.156Z,9.40
2022-09-28T19:45:14.884Z,9.40
2022-09-28T19:47:43.034Z,9.40
2022-09-28T19:50:11.141Z,9.40
2022-09-28T19:52:38.826Z,9.40
2022-09-28T19:55:09.235Z,9.40
2022-09-28T19:57:37.192Z,9.40
2022-09-28T20:00:05.596Z,9.40
2022-09-28T20:02:47.230Z,9.40
2022-09-28T20:05:14.953Z,9.40
2022-09-28T20:07:42.835Z,9.40
2022-09-28T20:10:12.084Z,9.40
2022-09-28T20:12:41.025Z,9.40
2022-09-28T20:15:10.524Z,9.30
2022-09-28T20:17:39.014Z,9.30
2022-09-28T20:20:07.477Z,9.30
2022-09-28T20:22:35.149Z,9.30
2022-09-28T20:25:06.984Z,9.30
2022-09-28T20:27:35.967Z,9.30
2022-09-28T20:30:04.515Z,9.30
2022-09-28T20:32:32.673Z,9.40
2022-09-28T20:35:00.421Z,9.40
2022-09-28T20:37:28.109Z,9.40
2022-09-28T20:39:55.769Z,9.40
2022-09-28T20:42:23.520Z,9.40
2022-09-28T20:44:52.638Z,9.50
2022-09-28T20:47:20.356Z,9.50
2022-09-28T20:49:48.037Z,9.50
2022-09-28T20:52:15.781Z,9.60
2022-09-28T20:54:43.462Z,9.60
2022-09-28T20:57:18.144Z,9.60
2022-09-28T20:59:47.201Z,9.60
2022-09-28T21:02:19.094Z,9.70
2022-09-28T21:04:46.793Z,9.70
2022-09-28T21:07:14.500Z,9.70
2022-09-28T21:09:42.287Z,9.70
2022-09-28T21:12:10.564Z,9.70
2022-09-28T21:14:38.272Z,9.70
2022-09-28T21:17:05.995Z,9.70
2022-09-28T21:19:35.247Z,9.60
2022-09-28T21:22:02.963Z,9.60
2022-09-28T21:24:30.816Z,9.60
2022-09-28T21:26:59.373Z,9.50
2022-09-28T21:29:27.085Z,9.50
2022-09-28T21:31:54.765Z,9.50
2022-09-28T21:34:22.668Z,9.40
2022-09-28T21:36:52.478Z,9.40
2022-09-28T21:39:20.369Z,9.30
2022-09-28T21:41:48.042Z,9.30
2022-09-28T21:44:15.880Z,9.20
2022-09-28T21:46:43.974Z,9.20
2022-09-28T21:49:14.131Z,9.10
2022-09-28T21:51:41.855Z,9.10
2022-09-28T21:54:11.831Z,9.00
2022-09-28T21:56:39.796Z,9.00
2022-09-28T21:59:07.529Z,8.90
2022-09-28T22:01:35.275Z,8.90
2022-09-28T22:04:03.213Z,8.90
2022-09-28T22:06:30.984Z,8.80
2022-09-28T22:08:58.922Z,8.80
2022-09-28T22:11:29.579Z,8.80
2022-09-28T22:13:59.596Z,8.70
2022-09-28T22:16:29.947Z,8.70
2022-09-28T22:18:58.131Z,8.60
2022-09-28T22:21:27.694Z,8.60
2022-09-28T22:23:58.502Z,8.60
2022-09-28T22:26:29.074Z,8.60
2022-09-28T22:28:58.662Z,8.60
2022-09-28T22:31:28.446Z,8.50
2022-09-28T22:33:56.748Z,8.50
2022-09-28T22:36:25.486Z,8.50
2022-09-28T22:38:54.707Z,8.50
2022-09-28T22:41:22.965Z,8.40
2022-09-28T22:43:53.242Z,8.40
2022-09-28T22:46:23.180Z,8.40
2022-09-28T22:48:52.962Z,8.40
2022-09-28T22:51:21.864Z,8.30
2022-09-28T22:53:49.761Z,8.30
2022-09-28T22:56:19.159Z,8.30
2022-09-28T22:58:47.728Z,8.30
2022-09-28T23:01:19.102Z,8.30
2022-09-28T23:03:47.522Z,8.20
2022-09-28T23:06:17.189Z,8.20
2022-09-28T23:08:45.706Z,8.20
2022-09-28T23:11:13.392Z,8.20
2022-09-28T23:13:41.053Z,8.20
2022-09-28T23:16:11.373Z,8.20
2022-09-28T23:18:41.639Z,8.10
2022-09-28T23:21:12.506Z,8.10
2022-09-28T23:23:40.195Z,8.10
2022-09-28T23:26:12.289Z,8.20
2022-09-28T23:28:39.944Z,8.20
2022-09-28T23:31:11.768Z,8.10
2022-09-28T23:33:40.872Z,8.10
2022-09-28T23:36:09.443Z,8.10
2022-09-28T23:38:37.556Z,8.10
2022-09-28T23:41:05.409Z,8.10
2022-09-28T23:43:33.702Z,8.10
2022-09-28T23:46:01.872Z,8.10
2022-09-28T23:48:29.858Z,8.10
2022-09-28T23:50:59.214Z,8.10
2022-09-28T23:53:27.365Z,8.00
2022-09-28T23:55:55.708Z,8.00
2022-09-28T23:58:23.956Z,8.00
